Startpagina
METAR-TAF:

METAR-TAF

Vliegvelden :

Aeroporto João Paulo II

Ponta Delgada, Azoren, Portugal

breedte: 37-44N, lengte: 025-42W, hoogte: 71 m

Actueel weer

Dit bericht is 22 minuten geleden gemaakt, om 18:30 UTC
Wind 8 kt uit het noordnoordoosten, variërend tussen het noordnoordwesten en het oostnoordoosten
Temperatuur 16°C
Vochtigheid 55%
Druk 1026 hPa
Zicht 10 km of meer
Weinig wolken op 2500 ft
Gebroken wolken op 4500 ft

METAR: LPPD 251830Z 02008KT 340V070 9999 FEW025 BKN045 16/07 Q1026

Tijdstip: 18:52 (18:52 UTC)

Verwachting

Dit bericht is 1 uur en het 52 minuten geleden gemaakt, om 17:00 UTC
Verwachting geldig van 25 om 18 UTC tot 26 om 18 UTC
Wind 5 kt uit variabele richting
Zicht 10 km of meer
Weinig wolken op 2500 ft
Tijdelijke
van 25 om 18 UTC tot 26 om 18 UTC
Weinig wolken op 1800 ft
Gebroken wolken op 3500 ft
Wijzigt naar
van 26 om 08 UTC tot 26 om 11 UTC
Wind 8 kt uit het oostzuidoosten

TAF: LPPD 251700Z 2518/2618 VRB05KT 9999 FEW025 TEMPO 2518/2618 FEW018 BKN035 BECMG 2608/2611 12008KT

Waarnemingen en weersverwachtingen van meer dan 4000 vliegvelden (METAR en TAF).

De beschikbare stations zijn de gele en rode punten op de kaart.

Ga met uw muis naar het station om de naam te zien.

Klik dan om waarnemingen en weersverwachtingen te zien.

kaart wijzigen: klik op de groene knoppen met een zwart kruis om in te zoomen, op de groene knop met een streepje om uit te zoomen of op de groene pijlen voor aangrenzende kaarten.


METAR-TAF: